createdAt,value
2022-12-15T00:00:00.707Z,19.15
2022-12-15T00:02:47.282Z,19.13
2022-12-15T00:05:32.559Z,19.10
2022-12-15T00:08:24.801Z,18.77
2022-12-15T00:11:10.017Z,19.27
2022-12-15T00:13:55.527Z,19.17
2022-12-15T00:16:41.156Z,19.17
2022-12-15T00:19:28.176Z,20.02
2022-12-15T00:22:13.639Z,20.42
2022-12-15T00:24:59.186Z,18.70
2022-12-15T00:27:44.591Z,19.20
2022-12-15T00:30:30.454Z,18.85
2022-12-15T00:33:15.741Z,18.92
2022-12-15T00:36:02.290Z,19.55
2022-12-15T00:38:43.590Z,20.15
2022-12-15T00:41:12.817Z,19.27
2022-12-15T00:43:40.659Z,19.35
2022-12-15T00:46:26.374Z,18.70
2022-12-15T00:48:54.243Z,18.75
2022-12-15T00:51:22.571Z,19.15
2022-12-15T00:54:11.860Z,20.10
2022-12-15T00:56:59.961Z,20.08
2022-12-15T00:59:45.416Z,19.90
2022-12-15T01:02:30.935Z,19.98
2022-12-15T01:05:16.592Z,19.25
2022-12-15T01:08:03.207Z,19.05
2022-12-15T01:10:48.617Z,19.00
2022-12-15T01:13:34.196Z,19.88
2022-12-15T01:16:19.778Z,19.90
2022-12-15T01:19:04.940Z,19.83
2022-12-15T01:21:33.333Z,19.33
2022-12-15T01:24:02.407Z,19.33
2022-12-15T01:26:30.138Z,19.25
2022-12-15T01:28:57.933Z,20.58
2022-12-15T01:31:25.660Z,20.20
2022-12-15T01:33:54.494Z,18.48
2022-12-15T01:36:22.192Z,19.23
2022-12-15T01:38:54.099Z,19.38
2022-12-15T01:41:22.924Z,17.92
2022-12-15T01:43:50.746Z,19.25
2022-12-15T01:46:21.043Z,17.25
2022-12-15T01:48:53.335Z,18.05
2022-12-15T01:51:27.825Z,18.15
2022-12-15T01:54:01.479Z,18.73
2022-12-15T01:56:37.718Z,18.63
2022-12-15T01:59:08.626Z,17.08
2022-12-15T02:01:36.680Z,17.88
2022-12-15T02:04:04.725Z,18.42
2022-12-15T02:06:32.478Z,18.95
2022-12-15T02:09:02.169Z,16.85
2022-12-15T02:11:45.651Z,17.80
2022-12-15T02:14:18.812Z,18.15
2022-12-15T02:17:03.010Z,17.08
2022-12-15T02:19:49.955Z,17.58
2022-12-15T02:22:28.304Z,17.90
2022-12-15T02:25:11.265Z,17.42
2022-12-15T02:27:56.535Z,17.05
2022-12-15T02:30:34.374Z,17.55
2022-12-15T02:33:11.320Z,15.43
2022-12-15T02:35:48.807Z,17.35
2022-12-15T02:38:16.650Z,17.77
2022-12-15T02:40:44.365Z,17.45
2022-12-15T02:43:12.382Z,18.73
2022-12-15T02:45:55.539Z,18.00
2022-12-15T02:48:30.626Z,18.75
2022-12-15T02:51:20.995Z,19.00
2022-12-15T02:54:07.887Z,18.70
2022-12-15T02:56:42.310Z,18.17
2022-12-15T02:59:15.894Z,17.42
2022-12-15T03:01:50.824Z,16.83
2022-12-15T03:04:20.261Z,16.90
2022-12-15T03:09:28.796Z,16.40
2022-12-15T03:11:56.578Z,18.10
2022-12-15T03:14:25.410Z,18.08
2022-12-15T03:16:55.597Z,16.90
2022-12-15T03:19:24.034Z,18.13
2022-12-15T03:21:51.818Z,17.88
2022-12-15T03:24:19.789Z,17.45
2022-12-15T03:26:49.923Z,16.95
2022-12-15T03:29:18.035Z,17.02
2022-12-15T03:31:46.125Z,17.50
2022-12-15T03:34:18.964Z,17.10
2022-12-15T03:36:46.926Z,15.80
2022-12-15T03:39:14.773Z,17.00
2022-12-15T03:41:42.804Z,17.52
2022-12-15T03:44:10.681Z,16.27
2022-12-15T03:46:38.470Z,18.20
2022-12-15T03:49:06.852Z,16.63
2022-12-15T03:51:36.000Z,18.23
2022-12-15T03:54:03.770Z,16.98
2022-12-15T03:56:32.397Z,17.75
2022-12-15T03:59:00.181Z,18.48
2022-12-15T04:01:30.108Z,16.35
2022-12-15T04:04:01.201Z,16.60
2022-12-15T04:06:29.992Z,17.33
2022-12-15T04:08:59.294Z,17.07
2022-12-15T04:11:27.112Z,16.42
2022-12-15T04:13:55.027Z,18.88
2022-12-15T04:16:22.984Z,18.38
2022-12-15T04:19:10.903Z,17.42
2022-12-15T04:21:37.673Z,18.17
2022-12-15T04:24:24.995Z,16.98
2022-12-15T04:27:10.256Z,17.92
2022-12-15T04:29:55.665Z,17.65
2022-12-15T04:32:41.537Z,17.65
2022-12-15T04:35:27.248Z,17.85
2022-12-15T04:38:12.503Z,18.52
2022-12-15T04:40:59.249Z,17.85
2022-12-15T04:43:44.447Z,17.90
2022-12-15T04:46:29.870Z,18.23
2022-12-15T04:49:15.166Z,18.52
2022-12-15T04:52:00.088Z,16.80
2022-12-15T04:54:45.418Z,17.65
2022-12-15T04:57:32.088Z,18.10
2022-12-15T05:00:17.251Z,17.40
2022-12-15T05:03:02.733Z,17.45
2022-12-15T05:05:47.980Z,15.88
2022-12-15T05:08:33.355Z,16.55
2022-12-15T05:11:18.763Z,17.27
2022-12-15T05:14:05.498Z,16.65
2022-12-15T05:16:51.013Z,16.17
2022-12-15T05:19:36.112Z,16.77
2022-12-15T05:22:21.532Z,16.13
2022-12-15T05:25:06.577Z,15.93
2022-12-15T05:27:51.993Z,15.40
2022-12-15T05:30:38.800Z,16.70
2022-12-15T05:33:06.807Z,15.95
2022-12-15T05:35:34.527Z,16.55
2022-12-15T05:38:02.428Z,16.77
2022-12-15T05:40:30.257Z,17.55
2022-12-15T05:42:58.996Z,17.27
2022-12-15T05:45:28.662Z,17.60
2022-12-15T05:47:57.088Z,16.23
2022-12-15T05:50:24.876Z,17.67
2022-12-15T05:52:52.807Z,17.65
2022-12-15T05:55:20.583Z,18.83
2022-12-15T05:57:52.150Z,18.98
2022-12-15T06:00:20.436Z,18.00
2022-12-15T06:02:49.980Z,17.85
2022-12-15T06:05:18.328Z,18.35
2022-12-15T06:07:46.131Z,18.35
2022-12-15T06:10:13.999Z,17.02
2022-12-15T06:12:41.808Z,16.75
2022-12-15T06:15:10.407Z,17.25
2022-12-15T06:17:38.138Z,16.20
2022-12-15T06:20:08.555Z,16.80
2022-12-15T06:22:36.302Z,17.02
2022-12-15T06:25:04.312Z,16.45
2022-12-15T06:27:32.129Z,16.08
2022-12-15T06:29:59.869Z,17.60
2022-12-15T06:32:27.682Z,19.15
2022-12-15T06:34:55.465Z,17.75
2022-12-15T06:37:24.555Z,17.75
2022-12-15T06:39:52.433Z,17.90
2022-12-15T06:42:20.141Z,17.38
2022-12-15T06:44:47.885Z,17.73
2022-12-15T06:47:18.618Z,22.13
2022-12-15T06:49:46.363Z,21.13
2022-12-15T06:52:14.216Z,19.38
2022-12-15T06:54:43.447Z,19.33
2022-12-15T06:59:39.192Z,17.67
2022-12-15T07:02:14.642Z,17.73
2022-12-15T07:04:42.624Z,18.52
2022-12-15T07:07:10.817Z,18.65
2022-12-15T07:09:38.598Z,18.88
2022-12-15T07:12:08.492Z,18.45
2022-12-15T07:14:36.229Z,18.52
2022-12-15T07:17:04.169Z,17.38
2022-12-15T07:19:31.981Z,18.92
2022-12-15T07:22:01.271Z,18.67
2022-12-15T07:26:57.152Z,22.20
2022-12-15T07:29:26.362Z,18.73
2022-12-15T07:31:54.181Z,20.55
2022-12-15T07:34:21.980Z,20.10
2022-12-15T07:36:52.479Z,24.27
2022-12-15T07:39:21.166Z,21.65
2022-12-15T07:41:49.260Z,20.27
2022-12-15T07:44:17.501Z,20.70
2022-12-15T07:46:49.080Z,19.60
2022-12-15T07:49:17.316Z,21.40
2022-12-15T07:51:45.408Z,21.40
2022-12-15T07:54:14.052Z,21.60
2022-12-15T07:56:42.428Z,23.17
2022-12-15T07:59:10.345Z,21.02
2022-12-15T08:01:38.269Z,21.70
2022-12-15T08:04:07.660Z,24.05
2022-12-15T08:09:03.386Z,21.58
2022-12-15T08:11:35.183Z,19.00
2022-12-15T08:14:05.459Z,18.83
2022-12-15T08:16:36.496Z,19.15
2022-12-15T08:19:05.774Z,18.17
2022-12-15T08:21:34.978Z,11.18
2022-12-15T08:24:02.991Z,13.43
2022-12-15T08:26:31.676Z,14.90
2022-12-15T08:29:31.992Z,15.48
2022-12-15T08:31:52.204Z,13.88
2022-12-15T08:34:20.547Z,16.65
2022-12-15T08:36:49.912Z,16.65
2022-12-15T08:41:45.762Z,13.95
2022-12-15T08:44:13.627Z,16.10
2022-12-15T08:46:41.461Z,18.65
2022-12-15T08:49:09.805Z,22.17
2022-12-15T08:51:37.562Z,20.10
2022-12-15T08:54:06.771Z,16.77
2022-12-15T08:56:34.546Z,14.73
2022-12-15T08:59:03.519Z,16.33
2022-12-15T09:01:33.148Z,15.95
2022-12-15T09:04:02.061Z,16.85
2022-12-15T09:06:32.369Z,16.45
2022-12-15T09:09:02.513Z,18.20
2022-12-15T09:11:32.635Z,29.33
2022-12-15T09:14:00.482Z,20.88
2022-12-15T09:16:29.027Z,17.10
2022-12-15T09:18:58.697Z,15.30
2022-12-15T09:21:28.031Z,26.02
2022-12-15T09:24:00.418Z,25.50
2022-12-15T09:26:32.225Z,18.27
2022-12-15T09:29:01.795Z,19.45
2022-12-15T09:31:32.515Z,18.58
2022-12-15T09:34:01.782Z,13.43
2022-12-15T09:36:30.836Z,12.80
2022-12-15T09:38:59.290Z,12.18
2022-12-15T09:41:29.422Z,22.63
2022-12-15T09:44:01.118Z,119.03
2022-12-15T09:46:41.128Z,57.85
2022-12-15T09:49:16.122Z,40.25
2022-12-15T09:51:52.019Z,26.85
2022-12-15T09:54:22.507Z,29.88
2022-12-15T09:56:55.886Z,23.10
2022-12-15T09:59:33.770Z,39.20
2022-12-15T10:02:18.296Z,56.85
2022-12-15T10:04:55.650Z,20.38
2022-12-15T10:07:30.610Z,12.02
2022-12-15T10:09:58.457Z,10.85
2022-12-15T10:12:30.776Z,12.20
2022-12-15T10:15:10.111Z,23.15
2022-12-15T10:20:18.907Z,22.30
2022-12-15T10:22:50.326Z,21.77
2022-12-15T10:25:29.446Z,28.88
2022-12-15T10:30:50.377Z,20.10
2022-12-15T10:33:20.968Z,15.73
2022-12-15T10:35:49.709Z,12.10
2022-12-15T10:38:25.670Z,13.48
2022-12-15T10:40:57.311Z,12.30
2022-12-15T10:43:28.432Z,10.93
2022-12-15T10:46:08.297Z,10.60
2022-12-15T10:48:36.731Z,9.95
2022-12-15T10:51:22.275Z,10.25
2022-12-15T10:53:52.683Z,11.05
2022-12-15T10:56:32.732Z,10.90
2022-12-15T10:59:24.631Z,10.75
2022-12-15T11:01:54.308Z,9.93
2022-12-15T11:04:28.735Z,11.38
2022-12-15T11:07:00.566Z,10.88
2022-12-15T11:09:34.057Z,11.68
2022-12-15T11:12:19.927Z,11.60
2022-12-15T11:14:49.397Z,10.88
2022-12-15T11:17:22.317Z,12.13
2022-12-15T11:20:01.863Z,10.75
2022-12-15T11:22:40.914Z,10.07
2022-12-15T11:25:25.577Z,10.00
2022-12-15T11:27:57.373Z,10.82
2022-12-15T11:30:27.588Z,10.65
2022-12-15T11:33:00.210Z,11.80
2022-12-15T11:35:34.044Z,10.15
2022-12-15T11:38:14.080Z,11.52
2022-12-15T11:40:43.200Z,10.32
2022-12-15T11:43:24.374Z,8.68
2022-12-15T11:46:19.700Z,9.27
2022-12-15T11:49:03.595Z,11.88
2022-12-15T11:51:40.523Z,11.30
2022-12-15T11:54:16.696Z,9.05
2022-12-15T11:56:49.100Z,10.25
2022-12-15T11:59:51.078Z,8.43
2022-12-15T12:02:45.198Z,19.55
2022-12-15T12:05:30.779Z,12.10
2022-12-15T12:08:08.762Z,9.77
2022-12-15T12:10:41.269Z,8.02
2022-12-15T12:13:21.480Z,7.25
2022-12-15T12:15:58.506Z,8.43
2022-12-15T12:18:29.934Z,7.18
2022-12-15T12:21:05.156Z,7.38
2022-12-15T12:23:39.593Z,6.07
2022-12-15T12:26:13.504Z,6.85
2022-12-15T12:28:48.720Z,7.13
2022-12-15T12:31:27.835Z,9.55
2022-12-15T12:33:59.395Z,9.20
2022-12-15T12:36:28.680Z,9.45
2022-12-15T12:38:59.198Z,9.18
2022-12-15T12:41:37.417Z,9.10
2022-12-15T12:44:12.153Z,9.73
2022-12-15T12:46:44.266Z,8.95
2022-12-15T12:49:22.839Z,8.70
2022-12-15T12:51:58.605Z,9.48
2022-12-15T12:54:44.119Z,9.20
2022-12-15T12:57:31.596Z,8.75
2022-12-15T13:00:02.670Z,9.20
2022-12-15T13:03:16.334Z,11.57
2022-12-15T13:05:47.129Z,10.10
2022-12-15T13:08:51.056Z,9.60
2022-12-15T13:11:56.358Z,8.05
2022-12-15T13:14:46.695Z,8.25
2022-12-15T13:17:27.217Z,10.63
2022-12-15T13:23:18.756Z,10.38
2022-12-15T13:25:53.681Z,9.20
2022-12-15T13:28:32.380Z,9.98
2022-12-15T13:31:15.819Z,8.63
2022-12-15T13:33:56.363Z,8.68
2022-12-15T13:36:54.722Z,8.52
2022-12-15T13:39:56.109Z,8.35
2022-12-15T13:42:38.741Z,8.98
2022-12-15T13:45:51.197Z,8.95
2022-12-15T13:48:38.423Z,8.68
2022-12-15T13:51:30.136Z,8.23
2022-12-15T13:54:03.007Z,8.85
2022-12-15T13:56:58.301Z,8.57
2022-12-15T13:59:45.483Z,8.18
2022-12-15T14:02:26.065Z,8.02
2022-12-15T14:05:10.526Z,7.60
2022-12-15T14:07:38.679Z,7.35
2022-12-15T14:10:16.867Z,8.10
2022-12-15T14:12:45.725Z,8.43
2022-12-15T14:15:17.640Z,8.82
2022-12-15T14:17:49.875Z,8.73
2022-12-15T14:20:21.111Z,9.45
2022-12-15T14:22:52.510Z,8.82
2022-12-15T14:25:23.170Z,10.45
2022-12-15T14:27:51.726Z,10.85
2022-12-15T14:30:29.296Z,9.10
2022-12-15T14:33:06.925Z,9.63
2022-12-15T14:35:38.501Z,11.15
2022-12-15T14:38:09.222Z,9.82
2022-12-15T14:40:38.757Z,10.70
2022-12-15T14:43:10.287Z,10.65
2022-12-15T14:45:39.530Z,11.65
2022-12-15T14:51:00.803Z,12.45
2022-12-15T14:53:32.822Z,11.85
2022-12-15T14:56:15.674Z,11.48
2022-12-15T14:58:43.640Z,12.32
2022-12-15T15:01:25.850Z,13.35
2022-12-15T15:04:04.124Z,13.60
2022-12-15T15:06:36.000Z,12.37
2022-12-15T15:09:21.107Z,13.32
2022-12-15T15:11:51.387Z,12.60
2022-12-15T15:14:23.657Z,13.20
2022-12-15T15:17:06.053Z,13.52
2022-12-15T15:19:39.620Z,12.88
2022-12-15T15:22:30.549Z,12.40
2022-12-15T15:24:58.374Z,12.85
2022-12-15T15:27:37.398Z,15.15
2022-12-15T15:30:17.255Z,17.65
2022-12-15T15:32:54.406Z,15.38
2022-12-15T15:35:23.326Z,16.05
2022-12-15T15:37:53.183Z,14.82
2022-12-15T15:40:21.004Z,17.73
2022-12-15T15:42:49.302Z,16.05
2022-12-15T15:45:17.244Z,17.20
2022-12-15T15:47:48.272Z,15.85
2022-12-15T15:50:22.209Z,17.20
2022-12-15T15:52:50.098Z,16.77
2022-12-15T15:55:28.331Z,15.80
2022-12-15T15:57:56.258Z,18.05
2022-12-15T16:00:26.197Z,18.25
2022-12-15T16:02:54.571Z,17.83
2022-12-15T16:05:23.911Z,19.80
2022-12-15T16:07:51.751Z,18.83
2022-12-15T16:10:20.883Z,20.88
2022-12-15T16:12:51.819Z,22.27
2022-12-15T16:15:21.926Z,20.35
2022-12-15T16:17:50.415Z,20.30
2022-12-15T16:20:21.201Z,21.08
2022-12-15T16:22:55.761Z,21.67
2022-12-15T16:25:33.116Z,20.98
2022-12-15T16:28:14.171Z,20.85
2022-12-15T16:30:43.140Z,19.17
2022-12-15T16:33:11.928Z,22.95
2022-12-15T16:35:40.387Z,22.42
2022-12-15T16:38:15.825Z,21.30
2022-12-15T16:40:43.979Z,23.65
2022-12-15T16:43:16.018Z,23.23
2022-12-15T16:45:45.774Z,23.58
2022-12-15T16:48:14.290Z,22.42
2022-12-15T16:50:43.998Z,24.98
2022-12-15T16:53:17.239Z,22.38
2022-12-15T16:55:46.191Z,22.48
2022-12-15T16:58:16.915Z,21.08
2022-12-15T17:00:45.767Z,20.58
2022-12-15T17:03:14.756Z,21.67
2022-12-15T17:05:44.776Z,22.73
2022-12-15T17:08:19.195Z,22.10
2022-12-15T17:10:48.349Z,26.20
2022-12-15T17:13:22.727Z,24.88
2022-12-15T17:15:50.616Z,25.35
2022-12-15T17:18:18.466Z,27.20
2022-12-15T17:20:46.331Z,26.23
2022-12-15T17:23:21.009Z,24.63
2022-12-15T17:26:21.150Z,25.45
2022-12-15T17:28:39.088Z,25.25
2022-12-15T17:31:06.987Z,25.63
2022-12-15T17:33:35.949Z,24.83
2022-12-15T17:36:12.865Z,26.02
2022-12-15T17:38:42.000Z,47.28
2022-12-15T17:41:23.637Z,50.58
2022-12-15T17:46:48.812Z,28.48
2022-12-15T17:49:16.944Z,28.60
2022-12-15T17:51:45.384Z,30.25
2022-12-15T17:54:17.006Z,29.80
2022-12-15T17:56:47.365Z,30.95
2022-12-15T17:59:16.706Z,33.45
2022-12-15T18:04:12.659Z,36.85
2022-12-15T18:06:42.042Z,34.05
2022-12-15T18:11:45.124Z,32.00
2022-12-15T18:14:14.755Z,29.13
2022-12-15T18:16:42.613Z,30.73
2022-12-15T18:19:10.487Z,34.25
2022-12-15T18:21:38.615Z,28.13
2022-12-15T18:24:13.206Z,30.85
2022-12-15T18:26:41.001Z,27.48
2022-12-15T18:29:14.411Z,26.40
2022-12-15T18:31:42.729Z,26.45
2022-12-15T18:34:13.666Z,29.93
2022-12-15T18:36:41.521Z,28.45
2022-12-15T18:39:18.085Z,30.10
2022-12-15T18:41:46.596Z,31.98
2022-12-15T18:44:22.535Z,32.25
2022-12-15T18:46:51.294Z,29.05
2022-12-15T18:49:21.553Z,31.38
2022-12-15T18:51:50.247Z,32.65
2022-12-15T18:54:19.760Z,32.30
2022-12-15T18:56:50.520Z,36.60
2022-12-15T18:59:20.877Z,43.85
2022-12-15T19:01:49.807Z,41.95
2022-12-15T19:04:17.818Z,46.40
2022-12-15T19:06:45.995Z,54.63
2022-12-15T19:09:17.766Z,48.65
2022-12-15T19:12:17.608Z,43.38
2022-12-15T19:14:47.741Z,45.33
2022-12-15T19:17:35.283Z,42.42
2022-12-15T19:20:22.303Z,47.00
2022-12-15T19:22:50.604Z,49.35
2022-12-15T19:25:25.508Z,44.75
2022-12-15T19:27:58.429Z,43.58
2022-12-15T19:30:28.964Z,51.88
2022-12-15T19:32:57.130Z,47.47
2022-12-15T19:35:25.375Z,45.75
2022-12-15T19:37:57.715Z,46.50
2022-12-15T19:40:30.125Z,43.05
2022-12-15T19:42:59.132Z,43.13
2022-12-15T19:45:30.127Z,46.85
2022-12-15T19:47:58.202Z,49.13
2022-12-15T19:50:28.797Z,49.70
2022-12-15T19:53:00.624Z,52.03
2022-12-15T19:55:32.505Z,48.70
2022-12-15T19:58:00.832Z,45.47
2022-12-15T20:00:29.967Z,46.10
2022-12-15T20:02:58.017Z,43.03
2022-12-15T20:05:26.720Z,45.67
2022-12-15T20:07:55.433Z,46.47
2022-12-15T20:10:32.311Z,48.60
2022-12-15T20:13:00.828Z,45.30
2022-12-15T20:15:30.045Z,47.38
2022-12-15T20:17:58.097Z,45.35
2022-12-15T20:20:27.872Z,43.90
2022-12-15T20:22:57.333Z,42.90
2022-12-15T20:25:28.479Z,41.42
2022-12-15T20:27:56.940Z,39.72
2022-12-15T20:30:27.118Z,39.60
2022-12-15T20:32:56.321Z,40.10
2022-12-15T20:37:52.518Z,42.17
2022-12-15T20:40:23.687Z,38.22
2022-12-15T20:42:52.773Z,38.90
2022-12-15T20:45:23.165Z,40.67
2022-12-15T20:47:53.192Z,38.10
2022-12-15T20:50:29.306Z,35.67
2022-12-15T20:52:57.112Z,36.00
2022-12-15T20:55:25.026Z,34.22
2022-12-15T20:57:53.552Z,37.33
2022-12-15T21:00:22.634Z,47.13
2022-12-15T21:02:51.980Z,36.35
2022-12-15T21:05:22.271Z,34.45
2022-12-15T21:07:51.691Z,34.28
2022-12-15T21:10:21.318Z,33.70
2022-12-15T21:12:50.504Z,34.42
2022-12-15T21:15:20.909Z,33.05
2022-12-15T21:17:57.245Z,31.27
2022-12-15T21:23:19.666Z,32.75
2022-12-15T21:25:48.249Z,31.73
2022-12-15T21:28:16.348Z,32.65
2022-12-15T21:30:44.792Z,33.50
2022-12-15T21:33:12.941Z,33.35
2022-12-15T21:35:42.360Z,31.48
2022-12-15T21:40:48.863Z,32.90
2022-12-15T21:43:16.696Z,35.33
2022-12-15T21:45:44.473Z,35.80
2022-12-15T21:48:31.011Z,38.63
2022-12-15T21:50:59.045Z,32.05
2022-12-15T21:53:28.249Z,30.45
2022-12-15T21:55:57.452Z,31.52
2022-12-15T21:58:27.297Z,29.40
2022-12-15T22:00:55.207Z,31.33
2022-12-15T22:03:23.018Z,30.65
2022-12-15T22:05:50.811Z,29.48
2022-12-15T22:08:21.948Z,29.50
2022-12-15T22:10:52.927Z,29.17
2022-12-15T22:13:23.903Z,33.15
2022-12-15T22:15:51.959Z,34.40
2022-12-15T22:18:22.269Z,34.08
2022-12-15T22:20:52.381Z,34.30
2022-12-15T22:23:21.340Z,33.40
2022-12-15T22:25:55.985Z,31.80
2022-12-15T22:28:26.516Z,33.05
2022-12-15T22:30:55.891Z,35.13
2022-12-15T22:33:25.623Z,33.70
2022-12-15T22:35:54.915Z,34.03
2022-12-15T22:38:23.952Z,31.92
2022-12-15T22:40:55.488Z,32.75
2022-12-15T22:43:27.547Z,31.70
2022-12-15T22:45:56.310Z,32.53
2022-12-15T22:48:26.427Z,30.27
2022-12-15T22:50:54.257Z,30.63
2022-12-15T22:53:22.935Z,34.47
2022-12-15T22:55:51.041Z,32.17
2022-12-15T22:58:27.514Z,31.08
2022-12-15T23:00:57.695Z,30.55
2022-12-15T23:03:28.819Z,28.23
2022-12-15T23:05:58.555Z,27.17
2022-12-15T23:08:26.309Z,26.20
2022-12-15T23:11:11.565Z,25.60
2022-12-15T23:13:40.718Z,29.13
2022-12-15T23:16:21.408Z,25.05
2022-12-15T23:18:50.750Z,27.02
2022-12-15T23:21:21.016Z,26.65
2022-12-15T23:23:49.166Z,25.33
2022-12-15T23:26:19.017Z,25.58
2022-12-15T23:28:48.722Z,25.25
2022-12-15T23:31:17.066Z,24.27
2022-12-15T23:33:44.823Z,25.93
2022-12-15T23:36:13.156Z,24.45
2022-12-15T23:38:40.921Z,22.70
2022-12-15T23:41:08.656Z,22.30
2022-12-15T23:43:36.397Z,23.80
2022-12-15T23:46:07.582Z,23.63
2022-12-15T23:48:38.564Z,23.27
2022-12-15T23:51:08.882Z,21.80
2022-12-15T23:53:38.762Z,21.50
2022-12-15T23:56:09.549Z,18.30
2022-12-15T23:58:38.011Z,17.65
